Time;durP1;ratioP1;P1;durP2;ratioP2;P2;SDS_P1;SDS_P2;PMS_P1;PMS_P2;Temp;Humidity;BMP_temperature;BMP_pressure;BME280_temperature;BME280_humidity;BME280_pressure;Samples;Min_cycle;Max_cycle;Signal;HPM_P1;HPM_P2
2022/09/14 00:01:54;;;;;;;0.00;0.00;;;;;;;16.43;61.63;100637.91;7368679;19;20042;-58
2022/09/14 00:04:21;;;;;;;0.00;0.00;;;;;;;16.40;62.14;100627.50;7367139;19;20500;-58
2022/09/14 00:06:47;;;;;;;0.00;0.00;;;;;;;16.38;62.07;100634.66;7367685;19;20016;-58
2022/09/14 00:09:16;;;;;;;0.05;0.05;;;;;;;16.37;62.34;100625.00;7366461;19;20040;-57
2022/09/14 00:11:41;;;;;;;0.00;0.00;;;;;;;16.31;62.51;100628.78;7369219;19;25361;-57
2022/09/14 00:14:07;;;;;;;0.00;0.00;;;;;;;16.28;62.68;100635.06;7365276;19;20032;-58
2022/09/14 00:16:36;;;;;;;0.00;0.00;;;;;;;16.16;62.52;100619.81;7367136;19;20047;-57
2022/09/14 00:19:05;;;;;;;0.00;0.00;;;;;;;16.22;62.62;100638.00;7365984;19;20852;-58
2022/09/14 00:21:36;;;;;;;0.00;0.00;;;;;;;16.18;63.04;100636.44;7366078;19;20044;-57
2022/09/14 00:24:04;;;;;;;0.00;0.00;;;;;;;16.13;63.31;100630.53;7365741;19;20010;-56
2022/09/14 00:26:29;;;;;;;0.00;0.00;;;;;;;16.12;63.15;100627.94;7366567;19;20488;-57
2022/09/14 00:28:57;;;;;;;0.00;0.00;;;;;;;16.12;63.51;100631.47;7365984;19;20017;-57
2022/09/14 00:31:24;;;;;;;0.00;0.00;;;;;;;16.00;63.48;100610.94;7366842;19;20664;-58
2022/09/14 00:33:51;;;;;;;0.00;0.00;;;;;;;16.09;62.87;100618.41;7367308;19;20010;-58
2022/09/14 00:36:19;;;;;;;0.00;0.00;;;;;;;16.09;63.01;100615.78;7365931;19;20460;-58
2022/09/14 00:38:45;;;;;;;0.00;0.00;;;;;;;16.06;62.51;100608.00;7367048;19;20010;-57
2022/09/14 00:41:17;;;;;;;0.00;0.00;;;;;;;16.02;62.61;100606.47;7368473;19;20758;-58
2022/09/14 00:44:03;;;;;;;0.00;0.00;;;;;;;15.98;61.89;100604.91;7366437;19;20092;-58
2022/09/14 00:46:56;;;;;;;0.00;0.00;;;;;;;15.83;62.45;100593.28;7364590;19;20006;-58
2022/09/14 00:49:36;;;;;;;0.00;0.00;;;;;;;15.86;62.75;100608.94;7265450;19;2004508;-58
2022/09/14 00:52:08;;;;;;;0.00;0.00;;;;;;;15.77;62.61;100599.69;7366247;19;20037;-57
2022/09/14 00:54:40;;;;;;;0.00;0.00;;;;;;;15.77;62.37;100606.75;7364984;19;20106;-58
2022/09/14 00:57:06;;;;;;;0.00;0.00;;;;;;;15.61;62.84;100582.84;7366863;19;20018;-58
2022/09/14 00:59:36;;;;;;;0.00;0.00;;;;;;;15.65;63.23;100602.88;7365207;19;21006;-58
2022/09/14 01:02:02;;;;;;;0.00;0.00;;;;;;;15.50;62.95;100593.84;7366781;19;20062;-58
2022/09/14 01:04:27;;;;;;;0.00;0.00;;;;;;;15.57;62.75;100604.97;7363764;19;20014;-56
2022/09/14 01:07:08;;;;;;;0.00;0.00;;;;;;;15.55;62.73;100609.44;7363379;19;20035;-58
2022/09/14 01:09:53;;;;;;;0.00;0.00;;;;;;;15.51;61.94;100606.13;7364927;19;20089;-57
2022/09/14 01:12:48;;;;;;;0.00;0.00;;;;;;;15.45;61.79;100605.50;7366896;19;20074;-57
2022/09/14 01:15:13;;;;;;;0.00;0.00;;;;;;;15.39;63.48;100600.53;7261244;19;2004580;-58
2022/09/14 01:18:23;;;;;;;0.00;0.00;;;;;;;15.35;62.24;100594.53;7364946;19;20011;-58
2022/09/14 01:21:05;;;;;;;0.00;0.00;;;;;;;15.31;62.91;100593.84;7263309;19;2004131;-57
2022/09/14 01:24:02;;;;;;;0.00;0.00;;;;;;;15.27;62.31;100584.38;7366045;19;20014;-58
2022/09/14 01:27:04;;;;;;;0.00;0.00;;;;;;;15.24;62.83;100592.38;7263837;19;2004538;-57
2022/09/14 01:29:41;;;;;;;0.00;0.00;;;;;;;15.19;63.30;100589.09;7264133;19;2004037;-58
2022/09/14 01:32:27;;;;;;;0.00;0.00;;;;;;;15.15;62.59;100587.50;7363548;19;20010;-57
2022/09/14 01:35:04;;;;;;;0.00;0.00;;;;;;;15.09;63.79;100586.94;7366184;19;20010;-58
2022/09/14 01:37:36;;;;;;;0.00;0.00;;;;;;;15.06;63.92;100590.56;7365189;19;20088;-58
2022/09/14 01:40:24;;;;;;;0.00;0.00;;;;;;;15.00;63.05;100593.44;7366145;19;20676;-58
2022/09/14 01:42:57;;;;;;;0.00;0.00;;;;;;;14.95;63.90;100593.66;7366858;19;20025;-56
2022/09/14 01:45:24;;;;;;;0.00;0.00;;;;;;;14.89;64.47;100590.41;7364064;19;20050;-57
2022/09/14 01:47:59;;;;;;;0.00;0.00;;;;;;;14.86;63.88;100586.16;7365850;19;20009;-58
2022/09/14 01:50:35;;;;;;;0.00;0.00;;;;;;;14.81;64.66;100584.63;7364924;19;20015;-58
2022/09/14 01:53:42;;;;;;;0.00;0.00;;;;;;;14.77;63.56;100581.28;7364291;19;20046;-57
2022/09/14 01:56:19;;;;;;;0.00;0.00;;;;;;;14.71;64.13;100576.28;7259332;19;2004345;-57
2022/09/14 01:58:47;;;;;;;0.00;0.00;;;;;;;14.68;64.73;100576.41;7363176;19;20007;-58
2022/09/14 02:01:19;;;;;;;0.00;0.00;;;;;;;14.65;65.00;100571.25;7297244;19;20021;-55
2022/09/14 02:03:56;;;;;;;0.00;0.00;;;;;;;14.64;63.84;100574.81;7351280;19;20107;-57
2022/09/14 02:06:30;;;;;;;0.00;0.00;;;;;;;14.57;64.07;100574.22;7361089;19;20014;-58
2022/09/14 02:08:56;;;;;;;0.00;0.00;;;;;;;14.53;64.33;100577.88;7360638;19;20098;-58
2022/09/14 02:11:21;;;;;;;0.00;0.00;;;;;;;14.48;64.58;100579.84;7362722;19;20566;-58
2022/09/14 02:13:47;;;;;;;0.00;0.00;;;;;;;14.34;64.84;100566.38;7363221;19;20638;-58
2022/09/14 02:16:12;;;;;;;0.00;0.00;;;;;;;14.28;64.99;100570.97;7360585;19;20002;-58
2022/09/14 02:18:39;;;;;;;0.00;0.00;;;;;;;14.37;64.72;100587.28;7362963;19;20085;-58
2022/09/14 02:21:14;;;;;;;0.00;0.00;;;;;;;14.35;65.00;100578.63;7362940;19;20073;-58
2022/09/14 02:23:40;;;;;;;0.00;0.00;;;;;;;14.31;65.54;100583.13;7360873;19;20010;-58
2022/09/14 02:26:06;;;;;;;0.00;0.00;;;;;;;14.28;65.71;100584.09;7364047;19;20098;-57
2022/09/14 02:28:31;;;;;;;0.00;0.00;;;;;;;14.26;65.92;100583.31;7355814;19;20090;-57
2022/09/14 02:31:06;;;;;;;0.00;0.00;;;;;;;14.25;66.01;100584.22;7361332;19;21638;-58
2022/09/14 02:33:47;;;;;;;0.00;0.00;;;;;;;14.23;65.10;100586.03;7361810;19;20586;-58
2022/09/14 02:36:23;;;;;;;0.00;0.00;;;;;;;14.20;66.13;100583.56;7360781;19;20007;-58
2022/09/14 02:39:01;;;;;;;0.00;0.00;;;;;;;14.18;65.48;100576.63;7362886;19;20014;-57
2022/09/14 02:41:57;;;;;;;0.00;0.00;;;;;;;14.12;64.93;100576.88;7361492;19;20017;-56
2022/09/14 02:44:38;;;;;;;0.00;0.00;;;;;;;14.15;65.12;100580.25;7261710;19;2004318;-58
2022/09/14 02:47:21;;;;;;;0.00;0.00;;;;;;;14.13;65.90;100589.09;7365825;19;20821;-58
2022/09/14 02:50:39;;;;;;;0.00;0.00;;;;;;;14.11;64.75;100591.78;7366901;19;20015;-58
2022/09/14 02:53:26;;;;;;;0.00;0.00;;;;;;;14.06;65.23;100583.25;7260933;19;2004547;-58
2022/09/14 02:55:57;;;;;;;0.00;0.00;;;;;;;14.00;65.62;100589.59;7368881;19;20011;-58
2022/09/14 02:58:23;;;;;;;0.00;0.00;;;;;;;13.97;65.69;100586.22;7365134;19;20014;-57
2022/09/14 03:00:49;;;;;;;0.00;0.00;;;;;;;13.86;66.07;100570.03;7370314;19;20006;-58
2022/09/14 03:03:19;;;;;;;0.00;0.00;;;;;;;13.92;65.79;100585.53;7362905;19;20375;-57
2022/09/14 03:05:44;;;;;;;0.00;0.00;;;;;;;13.87;65.81;100583.09;7363840;19;20013;-58
2022/09/14 03:08:10;;;;;;;0.00;0.00;;;;;;;13.83;66.33;100575.38;7368313;19;20006;-57
2022/09/14 03:10:36;;;;;;;0.00;0.00;;;;;;;13.82;66.71;100576.31;7367683;19;20014;-57
2022/09/14 03:13:02;;;;;;;0.00;0.00;;;;;;;13.81;66.33;100577.22;7369185;19;20022;-58
2022/09/14 03:15:28;;;;;;;0.00;0.00;;;;;;;13.82;66.61;100578.94;7366323;19;20097;-57
2022/09/14 03:17:54;;;;;;;0.00;0.00;;;;;;;13.83;66.89;100567.50;7362011;19;20033;-57
2022/09/14 03:20:23;;;;;;;0.00;0.00;;;;;;;13.85;66.78;100561.31;7367473;19;20014;-58
2022/09/14 03:22:49;;;;;;;0.00;0.00;;;;;;;13.87;66.70;100561.22;7368405;19;20558;-57
2022/09/14 03:25:14;;;;;;;0.00;0.00;;;;;;;13.90;66.91;100563.75;7366337;19;20017;-58
2022/09/14 03:27:40;;;;;;;0.00;0.00;;;;;;;13.94;67.21;100562.72;7368536;19;20484;-58
2022/09/14 03:30:07;;;;;;;0.00;0.00;;;;;;;13.97;66.86;100557.34;7368544;19;20492;-58
2022/09/14 03:32:33;;;;;;;0.00;0.00;;;;;;;14.01;67.41;100553.69;7368101;19;20011;-58
2022/09/14 03:34:58;;;;;;;0.00;0.00;;;;;;;14.05;67.27;100550.03;7368258;19;20023;-56
2022/09/14 03:37:24;;;;;;;0.00;0.00;;;;;;;14.10;67.49;100540.19;7367138;19;20010;-58
2022/09/14 03:39:50;;;;;;;0.00;0.00;;;;;;;14.15;67.54;100540.88;7369127;19;20006;-58
2022/09/14 03:42:15;;;;;;;0.00;0.00;;;;;;;14.19;67.38;100542.47;7367219;19;20495;-58
2022/09/14 03:44:41;;;;;;;0.00;0.00;;;;;;;14.23;66.95;100538.78;7363402;19;20002;-58
2022/09/14 03:47:07;;;;;;;0.00;0.00;;;;;;;14.24;67.35;100542.25;7367487;19;20098;-58
2022/09/14 03:49:33;;;;;;;0.00;0.00;;;;;;;14.32;67.46;100548.06;7365641;19;20010;-58
2022/09/14 03:51:58;;;;;;;0.00;0.00;;;;;;;14.35;67.08;100549.72;7367637;19;20009;-57
2022/09/14 03:54:24;;;;;;;0.00;0.00;;;;;;;14.41;67.24;100562.59;7366478;19;20050;-57
2022/09/14 03:56:52;;;;;;;0.00;0.00;;;;;;;14.44;67.07;100558.06;7365402;19;20077;-58
2022/09/14 03:59:17;;;;;;;0.00;0.00;;;;;;;14.45;66.68;100551.91;7366767;19;20743;-58
2022/09/14 04:01:43;;;;;;;0.00;0.00;;;;;;;14.50;67.06;100551.75;7368593;19;20011;-58
2022/09/14 04:04:08;;;;;;;0.00;0.00;;;;;;;14.53;66.72;100551.59;7366734;19;20025;-54
2022/09/14 04:06:34;;;;;;;0.00;0.00;;;;;;;14.55;66.72;100547.16;7368705;19;20127;-59
2022/09/14 04:08:59;;;;;;;0.00;0.00;;;;;;;14.57;66.78;100545.31;7366959;19;20027;-57
2022/09/14 04:11:24;;;;;;;0.00;0.00;;;;;;;14.54;66.71;100540.16;7364453;19;20019;-58
2022/09/14 04:13:51;;;;;;;0.08;0.08;;;;;;;14.62;67.13;100551.22;7366445;19;20010;-57
2022/09/14 04:16:19;;;;;;;0.00;0.00;;;;;;;14.65;67.13;100550.22;7367724;19;20010;-58
2022/09/14 04:18:46;;;;;;;0.00;0.00;;;;;;;14.66;66.95;100547.56;7368394;19;20573;-57
2022/09/14 04:21:17;;;;;;;0.00;0.00;;;;;;;14.69;66.78;100547.41;7367252;19;20093;-58
2022/09/14 04:23:43;;;;;;;0.00;0.00;;;;;;;14.69;67.02;100552.66;7367923;19;20007;-57
2022/09/14 04:26:13;;;;;;;0.00;0.00;;;;;;;14.74;66.52;100545.44;7365797;19;25721;-57
2022/09/14 04:28:39;;;;;;;0.00;0.00;;;;;;;14.73;66.93;100543.75;7368947;19;20033;-58
2022/09/14 04:31:05;;;;;;;0.00;0.00;;;;;;;14.75;66.71;100548.94;7366663;19;20014;-57
2022/09/14 04:33:33;;;;;;;0.00;0.00;;;;;;;14.76;66.58;100548.88;7367868;19;20014;-58
2022/09/14 04:36:04;;;;;;;0.00;0.00;;;;;;;14.78;66.58;100540.91;7365283;19;20015;-57
2022/09/14 04:38:31;;;;;;;0.00;0.00;;;;;;;14.71;66.79;100534.22;7368022;19;20640;-57
2022/09/14 04:40:57;;;;;;;0.00;0.00;;;;;;;14.76;66.63;100538.38;7368590;19;20002;-58
2022/09/14 04:43:24;;;;;;;0.00;0.00;;;;;;;14.79;66.86;100538.22;7365294;19;20021;-58
2022/09/14 04:45:50;;;;;;;0.00;0.00;;;;;;;14.80;66.97;100533.84;7364459;19;22293;-57
2022/09/14 04:48:15;;;;;;;0.00;0.00;;;;;;;14.81;67.12;100539.94;7368329;19;20053;-57
2022/09/14 04:50:42;;;;;;;0.00;0.00;;;;;;;14.81;67.47;100539.94;7366366;19;21402;-58
2022/09/14 04:53:08;;;;;;;0.00;0.00;;;;;;;14.71;66.88;100521.94;7366939;19;20474;-57
2022/09/14 04:55:33;;;;;;;0.00;0.00;;;;;;;14.82;67.41;100534.63;7366068;19;20027;-58
2022/09/14 04:57:58;;;;;;;0.00;0.00;;;;;;;14.84;67.58;100537.16;7366156;19;20010;-56
2022/09/14 05:00:24;;;;;;;0.00;0.00;;;;;;;14.85;67.74;100537.13;7363310;19;20010;-57
2022/09/14 05:02:49;;;;;;;0.00;0.00;;;;;;;14.86;67.84;100538.84;7364953;19;20014;-57
2022/09/14 05:05:15;;;;;;;0.00;0.00;;;;;;;14.84;67.83;100532.75;7360874;19;20683;-58
2022/09/14 05:07:40;;;;;;;0.00;0.00;;;;;;;14.84;67.55;100521.41;7365332;19;20007;-58
2022/09/14 05:10:07;;;;;;;0.00;0.00;;;;;;;14.90;67.49;100529.00;7365151;19;20033;-58
2022/09/14 05:12:33;;;;;;;0.00;0.00;;;;;;;14.95;67.90;100529.66;7366892;19;20555;-58
2022/09/14 05:14:58;;;;;;;0.00;0.00;;;;;;;14.95;67.54;100522.66;7365016;19;20006;-58
2022/09/14 05:17:23;;;;;;;0.00;0.00;;;;;;;14.99;67.98;100528.63;7365669;19;20398;-57
2022/09/14 05:19:49;;;;;;;0.00;0.00;;;;;;;15.01;67.67;100529.44;7365207;19;20014;-58
2022/09/14 05:22:14;;;;;;;0.00;0.00;;;;;;;15.01;67.85;100532.06;7365333;19;20022;-58
2022/09/14 05:24:40;;;;;;;0.00;0.00;;;;;;;15.02;67.82;100529.34;7365759;19;20858;-57
2022/09/14 05:27:06;;;;;;;0.00;0.00;;;;;;;15.03;67.63;100530.19;7365991;19;20006;-58
2022/09/14 05:29:32;;;;;;;0.00;0.00;;;;;;;15.07;67.58;100530.94;7365751;19;20006;-57
2022/09/14 05:31:57;;;;;;;0.03;0.03;;;;;;;15.08;67.80;100532.63;7364256;19;20564;-57
2022/09/14 05:34:22;;;;;;;0.00;0.00;;;;;;;15.04;67.82;100526.66;7366371;19;20090;-58
2022/09/14 05:36:48;;;;;;;0.00;0.00;;;;;;;15.09;67.76;100527.28;7364248;19;20117;-58
2022/09/14 05:39:13;;;;;;;0.00;0.00;;;;;;;15.14;67.59;100533.22;7367399;19;20014;-58
2022/09/14 05:41:39;;;;;;;0.00;0.00;;;;;;;15.16;67.59;100525.28;7364126;19;20006;-58
2022/09/14 05:44:05;;;;;;;0.00;0.00;;;;;;;15.10;67.45;100513.22;7365689;19;20010;-57
2022/09/14 05:46:31;;;;;;;0.00;0.00;;;;;;;15.19;67.87;100525.97;7364749;19;20090;-58
2022/09/14 05:48:56;;;;;;;0.00;0.00;;;;;;;15.19;67.69;100528.59;7364969;19;20083;-58
2022/09/14 05:51:23;;;;;;;0.00;0.00;;;;;;;15.21;67.50;100533.81;7361778;19;21139;-58
2022/09/14 05:53:55;;;;;;;0.00;0.00;;;;;;;15.25;67.16;100535.34;7366666;19;20041;-58
2022/09/14 05:56:22;;;;;;;0.00;0.00;;;;;;;15.23;67.21;100538.06;7363551;19;20014;-56
2022/09/14 05:58:49;;;;;;;0.00;0.00;;;;;;;15.19;67.80;100531.22;7357490;19;20040;-58
2022/09/14 06:01:23;;;;;;;0.00;0.00;;;;;;;15.26;67.32;100548.47;7363229;19;20117;-58
2022/09/14 06:03:51;;;;;;;0.00;0.00;;;;;;;15.23;67.41;100540.69;7362101;19;20077;-56
2022/09/14 06:06:18;;;;;;;0.00;0.00;;;;;;;15.25;67.74;100551.13;7362163;19;20006;-56
2022/09/14 06:08:44;;;;;;;0.00;0.00;;;;;;;15.25;67.92;100551.13;7365126;19;20032;-57
2022/09/14 06:11:18;;;;;;;0.00;0.00;;;;;;;15.29;67.05;100556.19;7361570;19;20095;-56
2022/09/14 06:13:45;;;;;;;0.00;0.00;;;;;;;15.21;67.43;100542.56;7363920;19;20006;-58
2022/09/14 06:16:13;;;;;;;0.00;0.00;;;;;;;15.29;67.47;100552.72;7362166;19;20111;-58
2022/09/14 06:18:39;;;;;;;0.00;0.00;;;;;;;15.30;67.47;100552.63;7361533;19;20018;-58
2022/09/14 06:21:06;;;;;;;0.00;0.00;;;;;;;15.31;67.14;100553.53;7358264;19;20049;-57
2022/09/14 06:23:32;;;;;;;0.00;0.00;;;;;;;15.31;67.62;100554.38;7363458;19;20040;-58
2022/09/14 06:25:59;;;;;;;0.00;0.00;;;;;;;15.31;67.24;100554.38;7356231;19;20453;-58
2022/09/14 06:28:26;;;;;;;0.00;0.00;;;;;;;15.27;67.75;100550.16;7362385;19;20010;-58
2022/09/14 06:30:52;;;;;;;0.00;0.00;;;;;;;15.34;67.67;100563.03;7359495;19;20180;-58
2022/09/14 06:33:18;;;;;;;0.00;0.00;;;;;;;15.34;67.53;100565.66;7351028;19;20018;-58
2022/09/14 06:35:56;;;;;;;0.00;0.00;;;;;;;15.39;66.99;100558.44;7361833;19;20015;-57
2022/09/14 06:38:22;;;;;;;0.00;0.00;;;;;;;15.36;67.71;100553.28;7360570;19;20018;-57
2022/09/14 06:40:52;;;;;;;0.00;0.00;;;;;;;15.30;67.23;100547.38;7361274;19;20543;-58
2022/09/14 06:43:17;;;;;;;0.00;0.00;;;;;;;15.39;67.47;100568.94;7360085;19;20110;-57
2022/09/14 06:45:43;;;;;;;0.00;0.00;;;;;;;15.41;67.35;100569.72;7357328;19;20538;-57
2022/09/14 06:48:08;;;;;;;0.00;0.00;;;;;;;15.41;67.58;100570.59;7355979;19;20017;-57
2022/09/14 06:50:33;;;;;;;0.00;0.00;;;;;;;15.44;67.38;100580.97;7361397;19;20006;-57
2022/09/14 06:52:59;;;;;;;0.00;0.00;;;;;;;15.43;67.43;100570.53;7357341;19;20014;-58
2022/09/14 06:55:25;;;;;;;0.00;0.00;;;;;;;15.47;67.61;100572.09;7356375;19;20093;-57
2022/09/14 06:57:51;;;;;;;0.00;0.00;;;;;;;15.48;67.45;100572.03;7361233;19;20089;-58
2022/09/14 07:00:18;;;;;;;0.00;0.00;;;;;;;15.50;67.56;100569.31;7357864;19;20887;-58
2022/09/14 07:02:43;;;;;;;0.00;0.00;;;;;;;15.51;67.38;100568.38;7359117;19;20043;-58
2022/09/14 07:05:09;;;;;;;0.00;0.00;;;;;;;15.54;67.60;100576.16;7359737;19;20455;-58
2022/09/14 07:07:34;;;;;;;0.00;0.00;;;;;;;15.56;67.53;100571.66;7359344;19;20410;-57
2022/09/14 07:09:59;;;;;;;0.00;0.00;;;;;;;15.58;67.79;100580.38;7361804;19;20059;-58
2022/09/14 07:12:26;;;;;;;0.00;0.00;;;;;;;15.60;67.56;100583.78;7360400;19;20014;-57
2022/09/14 07:14:51;;;;;;;0.00;0.00;;;;;;;15.63;67.55;100578.41;7361289;19;20010;-57
2022/09/14 07:17:17;;;;;;;0.00;0.00;;;;;;;15.65;67.44;100580.97;7359643;19;20014;-58
2022/09/14 07:19:42;;;;;;;0.00;0.00;;;;;;;15.67;67.46;100576.50;7361878;19;20014;-55
2022/09/14 07:22:07;;;;;;;0.00;0.00;;;;;;;15.65;67.14;100575.69;7358218;19;20031;-59
2022/09/14 07:24:33;;;;;;;0.00;0.00;;;;;;;15.71;66.96;100589.47;7358140;19;20014;-59
2022/09/14 07:26:58;;;;;;;0.00;0.00;;;;;;;15.74;67.10;100593.72;7350530;19;20040;-58
2022/09/14 07:29:24;;;;;;;0.00;0.00;;;;;;;15.76;67.46;100600.63;7338640;19;20593;-58
2022/09/14 07:31:53;;;;;;;0.00;0.00;;;;;;;15.81;67.33;100598.66;7358175;19;20009;-58
2022/09/14 07:34:19;;;;;;;0.00;0.00;;;;;;;15.71;67.04;100581.56;7365842;19;20010;-59
2022/09/14 07:36:45;;;;;;;0.00;0.00;;;;;;;15.81;67.19;100588.13;7365484;19;20054;-58
2022/09/14 07:39:14;;;;;;;0.00;0.00;;;;;;;15.86;67.51;100594.91;7368078;19;20109;-58
2022/09/14 07:41:39;;;;;;;0.00;0.00;;;;;;;15.83;67.76;100602.03;7367773;19;20021;-58
2022/09/14 07:44:06;;;;;;;0.00;0.00;;;;;;;15.86;67.62;100602.81;7368965;19;20011;-59
2022/09/14 07:46:38;;;;;;;0.00;0.00;;;;;;;15.88;67.19;100598.34;7369478;19;20014;-58
2022/09/14 07:49:04;;;;;;;0.00;0.00;;;;;;;15.83;67.37;100594.16;7370157;19;20074;-59
2022/09/14 07:51:31;;;;;;;0.00;0.00;;;;;;;15.79;67.51;100582.03;7361257;19;20023;-57
2022/09/14 07:53:59;;;;;;;0.00;0.00;;;;;;;15.89;67.63;100600.06;7366884;19;20502;-59
2022/09/14 07:56:25;;;;;;;0.00;0.00;;;;;;;15.89;68.04;100594.78;7367987;19;20567;-58
2022/09/14 07:58:55;;;;;;;0.00;0.00;;;;;;;15.92;67.61;100600.78;7368669;19;20070;-58
2022/09/14 08:01:22;;;;;;;0.00;0.00;;;;;;;15.80;67.79;100591.66;7368322;19;20018;-58
2022/09/14 08:03:47;;;;;;;0.00;0.00;;;;;;;15.92;67.88;100605.19;7367455;19;20027;-58
2022/09/14 08:06:21;;;;;;;0.00;0.00;;;;;;;15.97;67.35;100597.94;7368614;19;20006;-58
2022/09/14 08:08:49;;;;;;;0.00;0.00;;;;;;;15.95;67.98;100599.75;7368119;19;20047;-58
2022/09/14 08:11:18;;;;;;;0.00;0.00;;;;;;;15.96;67.79;100594.41;7367848;19;20018;-57
2022/09/14 08:13:47;;;;;;;0.00;0.00;;;;;;;15.98;67.92;100599.63;7368506;19;20014;-59
2022/09/14 08:16:13;;;;;;;0.00;0.00;;;;;;;15.97;67.87;100587.41;7367780;19;20440;-58
2022/09/14 08:18:39;;;;;;;0.00;0.00;;;;;;;15.91;67.74;100585.03;7368116;19;20520;-56
2022/09/14 08:21:06;;;;;;;0.00;0.00;;;;;;;16.01;67.96;100600.31;7366313;19;20033;-58
2022/09/14 08:23:33;;;;;;;0.00;0.00;;;;;;;16.05;67.81;100596.63;7367817;19;20609;-56
2022/09/14 08:26:20;;;;;;;0.00;0.00;;;;;;;16.14;66.94;100590.06;7367299;19;20018;-58
2022/09/14 08:28:46;;;;;;;0.00;0.00;;;;;;;16.16;67.14;100592.63;7365693;19;20681;-57
2022/09/14 08:31:16;;;;;;;0.10;0.10;;;;;;;16.24;67.34;100591.34;7367390;19;20022;-57
2022/09/14 08:33:48;;;;;;;0.00;0.00;;;;;;;16.33;67.06;100595.34;7366810;19;20013;-59
2022/09/14 08:36:16;;;;;;;0.00;0.00;;;;;;;16.41;67.04;100597.56;7367712;19;20014;-59
2022/09/14 08:38:42;;;;;;;0.00;0.00;;;;;;;16.37;66.73;100574.94;7366421;19;20022;-59
2022/09/14 08:41:36;;;;;;;0.00;0.00;;;;;;;16.63;66.35;100586.84;7367188;19;20031;-59
2022/09/14 08:44:21;;;;;;;0.00;0.00;;;;;;;16.67;65.96;100589.25;7262018;19;2004649;-59
2022/09/14 08:46:50;;;;;;;0.00;0.00;;;;;;;16.70;66.07;100589.09;7366991;19;20010;-59
2022/09/14 08:49:43;;;;;;;0.00;0.00;;;;;;;16.77;65.86;100579.97;7363500;19;20014;-59
2022/09/14 08:52:14;;;;;;;0.00;0.00;;;;;;;16.73;65.40;100562.63;7264880;19;2004399;-59
2022/09/14 08:54:40;;;;;;;0.00;0.00;;;;;;;16.83;65.09;100577.06;7367526;19;20073;-58
2022/09/14 08:57:23;;;;;;;0.00;0.00;;;;;;;16.92;65.16;100577.50;7365216;19;20125;-59
2022/09/14 08:59:58;;;;;;;0.00;0.00;;;;;;;16.94;64.69;100580.94;7367844;19;20010;-57
2022/09/14 09:02:42;;;;;;;0.08;0.08;;;;;;;16.92;65.34;100578.34;7366243;19;20090;-59
2022/09/14 09:05:33;;;;;;;0.00;0.00;;;;;;;17.02;65.39;100579.56;7363571;19;20013;-59
2022/09/14 09:08:03;;;;;;;0.00;0.00;;;;;;;17.03;65.84;100580.44;7264272;19;2004605;-59
2022/09/14 09:10:30;;;;;;;0.00;0.00;;;;;;;17.14;64.94;100582.53;7365678;19;20073;-58
2022/09/14 09:12:58;;;;;;;0.00;0.00;;;;;;;17.27;65.03;100579.16;7367638;19;20018;-59
2022/09/14 09:15:29;;;;;;;0.00;0.00;;;;;;;17.40;64.76;100594.38;7367026;19;20020;-58
2022/09/14 09:18:00;;;;;;;0.00;0.00;;;;;;;17.50;64.91;100590.31;7368141;19;20582;-58
2022/09/14 09:20:29;;;;;;;0.00;0.00;;;;;;;17.58;65.00;100590.75;7364229;19;20066;-58
2022/09/14 09:23:03;;;;;;;0.00;0.00;;;;;;;17.70;64.26;100587.47;7367514;19;20007;-59
2022/09/14 09:25:40;;;;;;;0.00;0.00;;;;;;;17.77;63.77;100591.50;7364699;19;20048;-59
2022/09/14 09:28:09;;;;;;;0.00;0.00;;;;;;;17.77;64.25;100566.88;7366598;19;20010;-58
2022/09/14 09:30:35;;;;;;;0.00;0.00;;;;;;;18.00;64.30;100582.31;7365350;19;20013;-58
2022/09/14 09:33:00;;;;;;;0.10;0.10;;;;;;;18.24;63.52;100588.00;7365882;19;20006;-57
2022/09/14 09:35:26;;;;;;;0.00;0.00;;;;;;;18.46;63.40;100585.00;7364906;19;20011;-58
2022/09/14 09:37:51;;;;;;;0.00;0.00;;;;;;;18.51;62.94;100563.59;7365343;19;20010;-59
2022/09/14 09:40:24;;;;;;;0.00;0.00;;;;;;;18.76;62.26;100585.06;7360693;19;20025;-59
2022/09/14 09:43:10;;;;;;;0.00;0.00;;;;;;;18.91;62.66;100589.47;7366873;19;20028;-58
2022/09/14 09:45:47;;;;;;;0.00;0.00;;;;;;;18.99;61.88;100596.06;7365116;19;20764;-59
2022/09/14 09:48:14;;;;;;;0.00;0.00;;;;;;;18.93;60.68;100576.13;7366127;19;20010;-59
2022/09/14 09:50:52;;;;;;;0.03;0.03;;;;;;;19.11;61.81;100590.91;7365186;19;20374;-57
2022/09/14 09:53:20;;;;;;;0.10;0.10;;;;;;;19.18;61.12;100594.03;7365585;19;20038;-59
2022/09/14 09:55:48;;;;;;;0.08;0.08;;;;;;;19.24;60.56;100595.47;7361652;19;20022;-58
2022/09/14 09:58:27;;;;;;;;;;;;;;;19.41;62.15;100592.63;7367146;19;20026;-58
2022/09/14 10:00:57;;;;;;;0.00;0.00;;;;;;;19.41;60.16;100588.22;7367001;19;20590;-59
2022/09/14 10:03:38;;;;;;;0.05;0.05;;;;;;;19.48;59.84;100593.13;7365902;19;20534;-59
2022/09/14 10:06:12;;;;;;;0.00;0.00;;;;;;;19.44;59.61;100588.00;7363668;19;20010;-58
2022/09/14 10:08:45;;;;;;;0.00;0.00;;;;;;;19.38;59.56;100588.38;7365378;19;20486;-58
2022/09/14 10:11:36;;;;;;;0.00;0.00;;;;;;;19.38;59.95;100593.69;7365498;19;20689;-59
2022/09/14 10:14:20;;;;;;;0.03;0.03;;;;;;;19.34;59.78;100601.91;7264611;19;2004561;-58
2022/09/14 10:16:46;;;;;;;0.00;0.00;;;;;;;19.21;58.99;100593.88;7364340;19;20013;-58
2022/09/14 10:19:14;;;;;;;0.00;0.00;;;;;;;19.19;59.36;100587.78;7365319;19;20136;-59
2022/09/14 10:22:00;;;;;;;0.00;0.00;;;;;;;19.20;60.49;100589.50;7363854;19;20011;-58
2022/09/14 10:24:26;;;;;;;0.00;0.00;;;;;;;19.14;60.00;100600.44;7365510;19;20014;-57
2022/09/14 10:26:51;;;;;;;0.10;0.10;;;;;;;19.16;60.30;100601.22;7362576;19;20017;-58
2022/09/14 10:29:36;;;;;;;0.03;0.03;;;;;;;19.30;60.45;100598.56;7363756;19;20015;-58
2022/09/14 10:32:11;;;;;;;0.10;0.10;;;;;;;19.36;59.70;100602.66;7364565;19;20105;-58
2022/09/14 10:34:37;;;;;;;0.10;0.10;;;;;;;19.37;58.71;100604.38;7363962;19;20010;-58
2022/09/14 10:37:30;;;;;;;0.00;0.00;;;;;;;19.47;59.52;100602.03;7365714;19;22260;-58
2022/09/14 10:40:15;;;;;;;0.00;0.00;;;;;;;19.49;59.31;100605.41;7260458;19;2004270;-58
2022/09/14 10:42:47;;;;;;;0.00;0.00;;;;;;;19.43;58.76;100596.91;7365233;19;20407;-59
2022/09/14 10:45:34;;;;;;;0.10;0.10;;;;;;;19.51;58.57;100612.31;7363573;19;20094;-58
2022/09/14 10:48:06;;;;;;;0.10;0.10;;;;;;;19.51;57.82;100608.81;7364075;19;20003;-58
2022/09/14 10:51:07;;;;;;;0.00;0.00;;;;;;;19.58;59.16;100615.44;7363948;19;20347;-58
2022/09/14 10:53:44;;;;;;;0.00;0.00;;;;;;;19.58;58.19;100616.28;7262578;19;2004072;-59
2022/09/14 10:56:22;;;;;;;0.10;0.10;;;;;;;19.57;57.62;100619.06;7363274;19;20010;-58
2022/09/14 10:59:21;;;;;;;0.00;0.00;;;;;;;19.57;58.33;100619.06;7364728;19;20040;-58
2022/09/14 11:02:23;;;;;;;0.00;0.00;;;;;;;19.53;58.38;100626.31;7263363;19;2004369;-59
2022/09/14 11:04:57;;;;;;;0.05;0.05;;;;;;;19.43;56.50;100623.38;7261108;19;2004514;-58
2022/09/14 11:07:41;;;;;;;0.00;0.00;;;;;;;19.47;57.41;100628.50;7366855;19;20010;-59
2022/09/14 11:10:17;;;;;;;0.10;0.10;;;;;;;19.44;57.70;100630.38;7369674;19;20506;-58
2022/09/14 11:13:01;;;;;;;0.00;0.00;;;;;;;19.39;57.13;100627.16;7369714;19;20429;-59
2022/09/14 11:15:51;;;;;;;0.00;0.00;;;;;;;19.39;57.66;100621.00;7368398;19;20023;-58
2022/09/14 11:18:34;;;;;;;0.00;0.00;;;;;;;19.43;57.92;100628.69;7367652;19;20519;-59
2022/09/14 11:21:14;;;;;;;0.10;0.10;;;;;;;19.43;57.43;100618.09;7366841;19;20744;-58
2022/09/14 11:23:50;;;;;;;0.05;0.05;;;;;;;19.45;57.62;100621.47;7362754;19;20011;-58
2022/09/14 11:26:30;;;;;;;0.03;0.03;;;;;;;19.45;57.23;100621.47;7368848;19;20011;-58
2022/09/14 11:29:10;;;;;;;0.10;0.10;;;;;;;19.44;56.27;100618.94;7367351;19;20003;-59
2022/09/14 11:31:51;;;;;;;0.10;0.10;;;;;;;19.50;56.34;100620.34;7369354;19;20037;-59
2022/09/14 11:34:31;;;;;;;0.10;0.10;;;;;;;19.50;57.25;100617.69;7364739;19;20097;-56
2022/09/14 11:37:07;;;;;;;0.00;0.00;;;;;;;19.54;56.34;100632.47;7364602;19;20974;-58
2022/09/14 11:39:41;;;;;;;0.00;0.00;;;;;;;19.60;56.51;100629.47;7368983;19;20019;-58
2022/09/14 11:42:32;;;;;;;0.00;0.00;;;;;;;19.72;57.27;100623.44;7367881;19;20543;-59
2022/09/14 11:45:06;;;;;;;0.00;0.00;;;;;;;19.78;56.82;100636.28;7366296;19;20014;-58